Terminal Aerodrome Forecast
Issued by NWS Omaha/Valley, NE

Home | Current Version | Previous Version | Graphics & Text | Print | Product List | Glossary On
Versions: 1 2 3 4 5 6 7 8 9 10 11 12 13 14 15 16 17 18 19
000
FTUS43 KOAX 191738
TAFOFK
TAF
KOFK 191738Z 1918/2018 17016G23KT P6SM BKN250
     FM200000 17014KT P6SM BKN070
     FM200500 17014KT 5SM BR BKN015 WS020/19045KT
     FM200900 16010KT 4SM -DZ BR OVC007
     FM201200 17010KT 5SM BR OVC010
     FM201400 20010KT P6SM BKN015
     FM201600 23011KT P6SM BKN035
     FM201700 26012KT P6SM BKN060=

USA.gov is the U.S. government's official web portal to all federal, state and local government web resources and services.